createdAt,value
2023-05-22T00:02:33.512Z,18.99
2023-05-22T00:05:41.673Z,18.93
2023-05-22T00:08:46.016Z,18.93
2023-05-22T00:11:49.991Z,18.81
2023-05-22T00:14:54.075Z,18.99
2023-05-22T00:17:57.999Z,19.05
2023-05-22T00:21:03.332Z,18.78
2023-05-22T00:24:08.013Z,18.99
2023-05-22T00:27:12.021Z,18.95
2023-05-22T00:30:16.143Z,18.93
2023-05-22T00:33:20.212Z,18.68
2023-05-22T00:36:25.679Z,18.79
2023-05-22T00:39:29.525Z,18.87
2023-05-22T00:42:33.754Z,18.86
2023-05-22T00:45:37.980Z,18.84
2023-05-22T00:48:41.816Z,18.67
2023-05-22T00:51:47.571Z,18.61
2023-05-22T00:54:52.505Z,18.70
2023-05-22T00:57:56.843Z,18.87
2023-05-22T01:01:01.387Z,19.01
2023-05-22T01:04:08.297Z,18.97
2023-05-22T01:07:13.826Z,19.09
2023-05-22T01:10:17.926Z,18.94
2023-05-22T01:13:30.429Z,19.00
2023-05-22T01:16:47.098Z,19.07
2023-05-22T01:20:07.873Z,19.04
2023-05-22T01:23:49.093Z,18.98
2023-05-22T01:27:26.323Z,19.13
2023-05-22T01:30:58.038Z,19.15
2023-05-22T01:34:05.070Z,19.01
2023-05-22T01:37:11.548Z,18.79
2023-05-22T01:40:16.083Z,18.77
2023-05-22T01:43:20.893Z,18.83
2023-05-22T01:46:29.134Z,18.85
2023-05-22T01:49:34.900Z,18.79
2023-05-22T01:52:47.573Z,18.77
2023-05-22T01:55:58.417Z,18.79
2023-05-22T01:59:09.898Z,18.78
2023-05-22T02:02:18.550Z,18.92
2023-05-22T02:05:23.932Z,18.99
2023-05-22T02:08:29.256Z,19.06
2023-05-22T02:11:35.544Z,19.07
2023-05-22T02:14:39.602Z,19.08
2023-05-22T02:17:45.866Z,19.01
2023-05-22T02:20:49.889Z,18.88
2023-05-22T02:23:53.705Z,18.75
2023-05-22T02:26:58.507Z,18.85
2023-05-22T02:30:02.568Z,18.99
2023-05-22T02:33:09.618Z,19.08
2023-05-22T02:36:14.846Z,19.12
2023-05-22T02:39:19.205Z,19.21
2023-05-22T02:42:23.261Z,19.17
2023-05-22T02:45:27.332Z,19.14
2023-05-22T02:48:32.850Z,19.10
2023-05-22T02:51:37.073Z,18.92
2023-05-22T02:54:41.001Z,19.05
2023-05-22T02:57:45.300Z,19.08
2023-05-22T03:00:49.305Z,19.12
2023-05-22T03:03:55.279Z,19.01
2023-05-22T03:06:59.541Z,19.09
2023-05-22T03:10:05.277Z,19.12
2023-05-22T03:13:09.131Z,19.09
2023-05-22T03:16:13.494Z,19.12
2023-05-22T03:19:24.061Z,19.09
2023-05-22T03:22:28.189Z,19.08
2023-05-22T03:25:32.120Z,19.09
2023-05-22T03:28:36.217Z,19.08
2023-05-22T03:31:40.142Z,19.11
2023-05-22T03:34:49.123Z,18.98
2023-05-22T03:37:53.037Z,19.16
2023-05-22T03:40:56.982Z,19.21
2023-05-22T03:44:01.227Z,19.22
2023-05-22T03:47:05.713Z,19.06
2023-05-22T03:50:12.215Z,18.98
2023-05-22T03:53:16.163Z,19.15
2023-05-22T03:56:20.008Z,19.17
2023-05-22T03:59:25.242Z,19.50
2023-05-22T04:02:30.506Z,19.46
2023-05-22T04:05:36.137Z,19.43
2023-05-22T04:08:40.403Z,19.50
2023-05-22T04:11:44.369Z,19.26
2023-05-22T04:14:48.342Z,19.33
2023-05-22T04:17:52.757Z,19.39
2023-05-22T04:20:58.433Z,19.43
2023-05-22T04:24:07.612Z,19.42
2023-05-22T04:27:11.660Z,19.42
2023-05-22T04:30:18.814Z,18.87
2023-05-22T04:33:22.911Z,18.91
2023-05-22T04:36:29.552Z,18.86
2023-05-22T04:39:34.540Z,18.54
2023-05-22T04:42:39.438Z,19.01
2023-05-22T04:45:43.826Z,18.91
2023-05-22T04:48:48.461Z,19.03
2023-05-22T04:51:55.591Z,18.96
2023-05-22T04:55:01.115Z,19.52
2023-05-22T04:58:06.800Z,19.88
2023-05-22T05:01:11.203Z,19.75
2023-05-22T05:04:15.320Z,19.32
2023-05-22T05:07:21.994Z,19.33
2023-05-22T05:10:26.240Z,19.56
2023-05-22T05:13:30.232Z,19.46
2023-05-22T05:16:35.167Z,19.52
2023-05-22T05:19:39.270Z,19.43
2023-05-22T05:22:46.426Z,19.40
2023-05-22T05:25:52.143Z,19.55
2023-05-22T05:28:57.288Z,19.76
2023-05-22T05:32:07.839Z,19.69
2023-05-22T05:35:18.080Z,19.73
2023-05-22T05:38:27.416Z,19.83
2023-05-22T05:41:32.568Z,19.96
2023-05-22T05:44:43.407Z,19.66
2023-05-22T05:47:49.333Z,19.82
2023-05-22T05:50:54.073Z,19.95
2023-05-22T05:54:00.525Z,19.99
2023-05-22T05:57:04.764Z,20.24
2023-05-22T06:00:12.086Z,20.37
2023-05-22T06:03:19.467Z,20.54
2023-05-22T06:06:39.568Z,20.52
2023-05-22T06:09:47.970Z,20.89
2023-05-22T06:13:01.498Z,21.23
2023-05-22T06:16:06.883Z,21.12
2023-05-22T06:19:11.945Z,21.22
2023-05-22T06:22:16.410Z,22.46
2023-05-22T06:25:26.328Z,22.53
2023-05-22T06:28:30.588Z,22.69
2023-05-22T06:31:38.876Z,23.32
2023-05-22T06:34:45.311Z,23.61
2023-05-22T06:37:50.121Z,23.87
2023-05-22T06:40:56.024Z,23.75
2023-05-22T06:44:03.570Z,23.74
2023-05-22T06:47:08.005Z,23.27
2023-05-22T06:50:12.956Z,23.10
2023-05-22T06:53:17.158Z,23.25
2023-05-22T06:56:23.094Z,24.16
2023-05-22T06:59:47.157Z,23.95
2023-05-22T07:03:23.316Z,24.25
2023-05-22T07:06:49.010Z,24.38
2023-05-22T07:09:53.132Z,24.52
2023-05-22T07:12:59.168Z,25.13
2023-05-22T07:16:03.309Z,24.96
2023-05-22T07:19:08.988Z,24.78
2023-05-22T07:22:13.255Z,24.70
2023-05-22T07:25:21.223Z,24.77
2023-05-22T07:28:26.967Z,24.80
2023-05-22T07:31:39.412Z,24.99
2023-05-22T07:34:44.656Z,25.08
2023-05-22T07:37:48.749Z,25.22
2023-05-22T07:40:53.268Z,25.29
2023-05-22T07:43:59.165Z,25.65
2023-05-22T07:47:09.385Z,26.39
2023-05-22T07:50:13.763Z,26.27
2023-05-22T07:53:21.136Z,25.72
2023-05-22T07:56:28.014Z,25.22
2023-05-22T07:59:34.631Z,24.74
2023-05-22T08:02:38.913Z,24.84
2023-05-22T08:05:43.229Z,25.33
2023-05-22T08:08:47.259Z,25.33
2023-05-22T08:11:51.264Z,25.54
2023-05-22T08:14:56.776Z,25.48
2023-05-22T08:18:00.709Z,25.31
2023-05-22T08:21:04.923Z,25.00
2023-05-22T08:24:09.612Z,25.76
2023-05-22T08:27:14.031Z,26.03
2023-05-22T08:30:19.739Z,26.68
2023-05-22T08:33:23.898Z,26.27
2023-05-22T08:36:27.943Z,27.24
2023-05-22T08:39:32.373Z,27.65
2023-05-22T08:42:36.411Z,27.48
2023-05-22T08:45:42.837Z,27.08
2023-05-22T08:48:47.557Z,26.96
2023-05-22T08:51:56.526Z,26.81
2023-05-22T08:55:01.760Z,27.18
2023-05-22T08:58:07.042Z,27.05
2023-05-22T09:01:12.769Z,27.19
2023-05-22T09:04:17.113Z,27.16
2023-05-22T09:07:22.575Z,26.16
2023-05-22T09:10:26.620Z,25.60
2023-05-22T09:13:31.658Z,25.32
2023-05-22T09:16:46.414Z,25.49
2023-05-22T09:19:50.478Z,26.18
2023-05-22T09:22:54.551Z,26.12
2023-05-22T09:25:59.728Z,25.91
2023-05-22T09:29:03.949Z,26.80
2023-05-22T09:32:15.430Z,26.41
2023-05-22T09:35:20.890Z,26.06
2023-05-22T09:38:28.375Z,25.63
2023-05-22T09:41:35.791Z,26.17
2023-05-22T09:44:40.386Z,27.06
2023-05-22T09:47:51.130Z,26.30
2023-05-22T09:50:56.581Z,25.40
2023-05-22T09:54:07.188Z,25.78
2023-05-22T09:57:15.533Z,25.44
2023-05-22T10:00:20.773Z,26.02
2023-05-22T10:03:28.296Z,26.15
2023-05-22T10:06:35.055Z,25.73
2023-05-22T10:09:41.530Z,26.01
2023-05-22T10:12:50.031Z,25.50
2023-05-22T10:15:55.013Z,25.83
2023-05-22T10:19:01.518Z,25.91
2023-05-22T10:22:06.635Z,26.56
2023-05-22T10:25:12.025Z,27.40
2023-05-22T10:28:23.193Z,27.71
2023-05-22T10:31:34.005Z,26.78
2023-05-22T10:35:04.635Z,27.13
2023-05-22T10:38:27.846Z,27.29
2023-05-22T10:41:32.319Z,27.39
2023-05-22T10:44:36.685Z,28.06
2023-05-22T10:47:41.041Z,27.53
2023-05-22T10:50:54.450Z,27.75
2023-05-22T10:54:02.587Z,28.10
2023-05-22T10:57:12.571Z,28.75
2023-05-22T11:00:19.647Z,28.34
2023-05-22T11:03:28.812Z,28.27
2023-05-22T11:06:39.123Z,28.41
2023-05-22T11:09:46.322Z,28.13
2023-05-22T11:13:03.984Z,28.24
2023-05-22T11:16:09.969Z,27.32
2023-05-22T11:22:25.634Z,27.02
2023-05-22T11:25:30.954Z,27.00
2023-05-22T11:28:35.105Z,27.00
2023-05-22T11:31:39.864Z,27.22
2023-05-22T11:34:44.527Z,27.00
2023-05-22T11:37:51.696Z,26.47
2023-05-22T11:40:55.705Z,26.12
2023-05-22T11:44:00.024Z,25.07
2023-05-22T11:47:04.730Z,23.98
2023-05-22T11:50:11.718Z,23.05
2023-05-22T11:53:17.296Z,22.42
2023-05-22T11:56:23.928Z,21.84
2023-05-22T11:59:28.958Z,21.54
2023-05-22T12:02:33.018Z,21.60
2023-05-22T12:05:37.025Z,22.00
2023-05-22T12:08:43.133Z,22.20
2023-05-22T12:11:48.417Z,22.20
2023-05-22T12:14:52.630Z,22.50
2023-05-22T12:17:57.319Z,22.53
2023-05-22T12:21:01.354Z,22.54
2023-05-22T12:24:07.762Z,22.62
2023-05-22T12:27:12.296Z,22.67
2023-05-22T12:30:17.316Z,22.76
2023-05-22T12:33:21.540Z,22.78
2023-05-22T12:36:35.226Z,22.77
2023-05-22T12:39:40.772Z,22.82
2023-05-22T12:42:45.256Z,22.87
2023-05-22T12:45:49.440Z,22.58
2023-05-22T12:48:53.523Z,22.49
2023-05-22T12:51:57.724Z,22.20
2023-05-22T12:55:03.212Z,21.96
2023-05-22T12:58:07.372Z,22.74
2023-05-22T13:01:11.673Z,23.45
2023-05-22T13:04:15.858Z,24.36
2023-05-22T13:07:19.981Z,24.76
2023-05-22T13:10:25.614Z,24.65
2023-05-22T13:13:29.750Z,24.87
2023-05-22T13:16:33.926Z,25.32
2023-05-22T13:19:38.517Z,25.26
2023-05-22T13:22:43.302Z,24.66
2023-05-22T13:25:48.829Z,24.68
2023-05-22T13:28:52.819Z,25.53
2023-05-22T13:31:56.816Z,25.57
2023-05-22T13:35:01.251Z,25.76
2023-05-22T13:38:05.374Z,25.74
2023-05-22T13:41:10.903Z,26.07
2023-05-22T13:44:15.016Z,26.20
2023-05-22T13:47:19.316Z,25.48
2023-05-22T13:50:23.385Z,24.64
2023-05-22T13:53:27.574Z,24.51
2023-05-22T13:56:33.109Z,24.86
2023-05-22T13:59:37.114Z,24.84
2023-05-22T14:02:41.409Z,24.86
2023-05-22T14:05:45.537Z,24.98
2023-05-22T14:08:49.965Z,25.23
2023-05-22T14:11:55.555Z,25.73
2023-05-22T14:14:59.724Z,25.35
2023-05-22T14:18:03.838Z,24.72
2023-05-22T14:21:08.101Z,24.72
2023-05-22T14:24:12.110Z,24.76
2023-05-22T14:27:17.811Z,25.46
2023-05-22T14:30:21.843Z,25.02
2023-05-22T14:33:25.972Z,24.92
2023-05-22T14:36:30.055Z,24.57
2023-05-22T14:39:34.130Z,24.05
2023-05-22T14:42:39.589Z,23.54
2023-05-22T14:45:43.627Z,23.37
2023-05-22T14:48:47.703Z,23.30
2023-05-22T14:51:51.850Z,22.98
2023-05-22T14:54:55.991Z,23.22
2023-05-22T14:58:01.527Z,24.19
2023-05-22T15:01:06.726Z,23.83
2023-05-22T15:04:11.417Z,23.84
2023-05-22T15:07:15.554Z,23.63
2023-05-22T15:10:19.648Z,23.54
2023-05-22T15:13:25.181Z,23.59
2023-05-22T15:16:29.272Z,23.13
2023-05-22T15:19:33.378Z,23.47
2023-05-22T15:22:37.559Z,23.33
2023-05-22T15:25:43.136Z,23.04
2023-05-22T15:28:48.761Z,22.94
2023-05-22T15:31:52.909Z,22.58
2023-05-22T15:34:57.002Z,22.61
2023-05-22T15:38:01.033Z,22.62
2023-05-22T15:41:05.096Z,22.44
2023-05-22T15:44:12.466Z,22.31
2023-05-22T15:47:17.016Z,22.19
2023-05-22T15:50:21.036Z,22.24
2023-05-22T15:53:25.093Z,22.37
2023-05-22T15:56:29.053Z,22.54
2023-05-22T15:59:34.489Z,22.41
2023-05-22T16:02:38.685Z,22.63
2023-05-22T16:05:42.790Z,22.67
2023-05-22T16:08:46.914Z,23.24
2023-05-22T16:11:51.101Z,23.47
2023-05-22T16:15:00.424Z,23.41
2023-05-22T16:18:05.508Z,23.44
2023-05-22T16:21:09.492Z,23.19
2023-05-22T16:24:13.524Z,22.74
2023-05-22T16:27:17.532Z,22.31
2023-05-22T16:30:23.140Z,22.64
2023-05-22T16:33:27.177Z,22.56
2023-05-22T16:36:31.444Z,22.42
2023-05-22T16:39:35.376Z,22.43
2023-05-22T16:42:39.559Z,22.06
2023-05-22T16:45:47.887Z,21.97
2023-05-22T16:48:53.163Z,21.92
2023-05-22T16:51:57.202Z,21.44
2023-05-22T16:55:01.543Z,21.05
2023-05-22T16:58:05.664Z,21.20
2023-05-22T17:01:11.402Z,20.93
2023-05-22T17:04:16.254Z,21.12
2023-05-22T17:07:20.273Z,20.77
2023-05-22T17:10:24.301Z,21.07
2023-05-22T17:13:28.335Z,20.82
2023-05-22T17:16:34.510Z,20.63
2023-05-22T17:19:39.157Z,20.91
2023-05-22T17:22:43.289Z,20.97
2023-05-22T17:25:47.987Z,21.11
2023-05-22T17:28:52.024Z,20.99
2023-05-22T17:31:57.540Z,20.57
2023-05-22T17:35:02.078Z,20.62
2023-05-22T17:38:08.095Z,20.54
2023-05-22T17:41:12.092Z,20.53
2023-05-22T17:44:16.129Z,20.72
2023-05-22T17:47:21.671Z,20.79
2023-05-22T17:50:26.123Z,20.54
2023-05-22T17:53:35.192Z,20.35
2023-05-22T17:56:40.979Z,20.30
2023-05-22T17:59:45.434Z,20.63
2023-05-22T18:02:51.076Z,20.59
2023-05-22T18:05:55.332Z,20.50
2023-05-22T18:08:59.419Z,20.63
2023-05-22T18:12:04.024Z,20.70
2023-05-22T18:15:11.078Z,20.46
2023-05-22T18:18:16.950Z,20.64
2023-05-22T18:21:21.060Z,20.66
2023-05-22T18:24:25.408Z,20.71
2023-05-22T18:27:29.550Z,20.64
2023-05-22T18:30:33.547Z,20.72
2023-05-22T18:33:40.003Z,20.72
2023-05-22T18:36:44.068Z,20.51
2023-05-22T18:39:48.250Z,20.50
2023-05-22T18:42:52.290Z,20.16
2023-05-22T18:45:58.115Z,20.28
2023-05-22T18:49:03.831Z,20.38
2023-05-22T18:52:07.932Z,20.12
2023-05-22T18:55:12.639Z,20.07
2023-05-22T18:58:16.699Z,20.15
2023-05-22T19:01:20.647Z,20.08
2023-05-22T19:04:26.138Z,19.93
2023-05-22T19:07:30.268Z,19.93
2023-05-22T19:10:34.674Z,20.07
2023-05-22T19:13:38.720Z,20.21
2023-05-22T19:16:43.867Z,20.13
2023-05-22T19:19:49.682Z,19.73
2023-05-22T19:22:54.247Z,19.49
2023-05-22T19:25:58.545Z,19.54
2023-05-22T19:29:02.525Z,19.58
2023-05-22T19:32:06.861Z,19.69
2023-05-22T19:35:12.753Z,19.79
2023-05-22T19:38:16.876Z,19.60
2023-05-22T19:41:20.900Z,19.77
2023-05-22T19:44:26.093Z,19.74
2023-05-22T19:47:30.611Z,19.79
2023-05-22T19:50:37.078Z,19.81
2023-05-22T19:53:41.536Z,19.83
2023-05-22T19:56:46.059Z,19.73
2023-05-22T19:59:50.071Z,19.76
2023-05-22T20:02:54.112Z,19.60
2023-05-22T20:05:59.631Z,19.71
2023-05-22T20:09:06.062Z,19.70
2023-05-22T20:12:10.815Z,19.56
2023-05-22T20:15:15.585Z,19.59
2023-05-22T20:18:21.024Z,19.64
2023-05-22T20:21:26.647Z,19.39
2023-05-22T20:24:31.373Z,19.51
2023-05-22T20:27:35.430Z,19.43
2023-05-22T20:30:39.395Z,19.56
2023-05-22T20:33:43.392Z,19.38
2023-05-22T20:36:49.119Z,19.10
2023-05-22T20:39:53.170Z,19.24
2023-05-22T20:42:57.820Z,19.20
2023-05-22T20:46:02.735Z,19.25
2023-05-22T20:49:06.879Z,19.19
2023-05-22T20:52:13.671Z,19.24
2023-05-22T20:55:17.613Z,18.90
2023-05-22T20:58:23.264Z,19.07
2023-05-22T21:01:28.455Z,19.05
2023-05-22T21:04:32.473Z,19.13
2023-05-22T21:07:38.079Z,19.12
2023-05-22T21:10:42.333Z,19.02
2023-05-22T21:13:46.460Z,19.20
2023-05-22T21:16:50.501Z,19.09
2023-05-22T21:19:54.478Z,19.24
2023-05-22T21:22:59.989Z,19.07
2023-05-22T21:26:04.562Z,19.11
2023-05-22T21:29:08.651Z,19.07
2023-05-22T21:32:13.022Z,19.04
2023-05-22T21:35:17.102Z,18.99
2023-05-22T21:38:22.623Z,18.95
2023-05-22T21:41:27.686Z,19.05
2023-05-22T21:44:31.663Z,19.03
2023-05-22T21:47:35.703Z,19.08
2023-05-22T21:50:40.005Z,19.14
2023-05-22T21:53:45.600Z,19.00
2023-05-22T21:56:49.590Z,19.14
2023-05-22T21:59:53.532Z,19.07
2023-05-22T22:02:58.321Z,19.09
2023-05-22T22:06:02.344Z,19.13
2023-05-22T22:09:07.827Z,19.10
2023-05-22T22:12:11.859Z,19.07
2023-05-22T22:15:16.009Z,19.13
2023-05-22T22:18:20.000Z,19.01
2023-05-22T22:21:23.924Z,18.97
2023-05-22T22:24:29.595Z,18.94
2023-05-22T22:27:33.814Z,18.72
2023-05-22T22:30:37.902Z,18.90
2023-05-22T22:33:42.041Z,18.77
2023-05-22T22:36:46.080Z,18.71
2023-05-22T22:39:51.718Z,18.79
2023-05-22T22:42:55.587Z,18.85
2023-05-22T22:45:59.723Z,18.85
2023-05-22T22:49:03.676Z,18.67
2023-05-22T22:52:07.900Z,18.60
2023-05-22T22:55:13.774Z,18.64
2023-05-22T22:58:19.054Z,18.57
2023-05-22T23:01:23.067Z,18.56
2023-05-22T23:04:28.468Z,18.48
2023-05-22T23:07:32.465Z,18.63
2023-05-22T23:10:37.979Z,18.54
2023-05-22T23:13:43.656Z,18.47
2023-05-22T23:16:47.926Z,18.35
2023-05-22T23:19:51.860Z,18.31
2023-05-22T23:22:55.945Z,18.33
2023-05-22T23:26:01.545Z,18.44
2023-05-22T23:29:05.693Z,17.99
2023-05-22T23:32:10.523Z,18.01
2023-05-22T23:35:15.683Z,18.12
2023-05-22T23:38:19.737Z,18.29
2023-05-22T23:41:26.022Z,18.33
2023-05-22T23:44:30.935Z,18.16
2023-05-22T23:47:35.045Z,18.05
2023-05-22T23:50:39.067Z,18.02
2023-05-22T23:53:43.476Z,17.72
2023-05-22T23:56:49.000Z,17.81
2023-05-22T23:59:53.100Z,17.46
